Time;durP1;ratioP1;P1;durP2;ratioP2;P2;SDS_P1;SDS_P2;PMS_P1;PMS_P2;Temp;Humidity;BMP_temperature;BMP_pressure;BME280_temperature;BME280_humidity;BME280_pressure;Samples;Min_cycle;Max_cycle;Signal;HPM_P1;HPM_P2
2023/01/06 00:02:00;;;;;;;;;;;;;;;8.68;100.00;98615.56;5099361;28;19932;-76
2023/01/06 00:04:26;;;;;;;;;;;;;;;8.82;100.00;98610.81;5119024;28;19935;-75
2023/01/06 00:06:54;;;;;;;;;;;;;;;9.00;100.00;98608.00;5099077;28;20010;-75
2023/01/06 00:09:20;;;;;;;;;;;;;;;9.12;100.00;98600.78;5114641;28;19939;-75
2023/01/06 00:11:47;;;;;;;;;;;;;;;9.24;100.00;98598.88;5115766;28;19932;-75
2023/01/06 00:14:13;;;;;;;;;;;;;;;9.33;100.00;98608.13;5100410;28;19955;-75
2023/01/06 00:16:39;;;;;;;;;;;;;;;9.35;100.00;98598.03;5134437;27;19924;-75
2023/01/06 00:19:06;;;;;;;;;;;;;;;9.28;100.00;98592.03;5131235;27;19995;-75
2023/01/06 00:21:32;;;;;;;;;;;;;;;9.16;100.00;98581.41;5115264;28;19924;-75
2023/01/06 00:24:00;;;;;;;;;;;;;;;9.08;100.00;98588.97;5096826;28;19924;-75
2023/01/06 00:26:27;;;;;;;;;;;;;;;9.11;100.00;98576.00;5113010;28;19955;-75
2023/01/06 00:28:53;;;;;;;;;;;;;;;9.05;100.00;98581.44;5098666;28;19920;-74
2023/01/06 00:31:20;;;;;;;;;;;;;;;9.28;100.00;98583.22;5096779;28;19924;-74
2023/01/06 00:33:46;;;;;;;;;;;;;;;9.33;100.00;98570.81;5115914;28;19935;-75
2023/01/06 00:36:13;;;;;;;;;;;;;;;9.09;100.00;98579.94;5119177;28;19927;-75
2023/01/06 00:38:40;;;;;;;;;;;;;;;8.82;100.00;98579.66;5101670;28;19932;-75
2023/01/06 00:43:49;;;;;;;;;;;;;;;8.56;100.00;98565.00;5116188;28;19943;-74
2023/01/06 00:46:15;;;;;;;;;;;;;;;8.62;100.00;98560.59;5118332;28;19923;-75
2023/01/06 00:48:42;;;;;;;;;;;;;;;8.49;100.00;98568.84;5100353;28;19919;-75
2023/01/06 00:51:08;;;;;;;;;;;;;;;8.51;100.00;98567.53;5106753;28;19966;-75
2023/01/06 00:53:35;;;;;;;;;;;;;;;8.57;100.00;98569.28;5106867;28;19931;-74
2023/01/06 00:56:01;;;;;;;;;;;;;;;8.59;100.00;98567.22;5119225;28;19977;-75
2023/01/06 00:58:31;;;;;;;;;;;;;;;8.58;100.00;98573.56;5117963;28;19985;-75
2023/01/06 01:00:57;;;;;;;;;;;;;;;8.60;100.00;98571.47;5098372;28;19923;-75
2023/01/06 01:03:24;;;;;;;;;;;;;;;8.60;100.00;98568.81;5115024;28;19928;-75
2023/01/06 01:05:50;;;;;;;;;;;;;;;8.67;100.00;98572.16;5097684;28;19979;-75
2023/01/06 01:08:17;;;;;;;;;;;;;;;8.80;100.00;98578.28;5118417;28;19923;-75
2023/01/06 01:10:43;;;;;;;;;;;;;;;8.92;100.00;98574.53;5100173;28;19966;-75
2023/01/06 01:13:09;;;;;;;;;;;;;;;8.88;100.00;98577.91;5096363;28;19963;-74
2023/01/06 01:15:36;;;;;;;;;;;;;;;8.84;100.00;98574.09;5114535;28;19931;-74
2023/01/06 01:18:03;;;;;;;;;;;;;;;8.71;100.00;98579.69;5098912;28;20680;-75
2023/01/06 01:20:29;;;;;;;;;;;;;;;8.63;100.00;98578.97;5118367;28;20039;-75
2023/01/06 01:22:56;;;;;;;;;;;;;;;8.66;100.00;98570.53;5120717;28;19924;-74
2023/01/06 01:25:22;;;;;;;;;;;;;;;8.63;100.00;98571.00;5110668;28;19924;-74
2023/01/06 01:27:48;;;;;;;;;;;;;;;8.54;100.00;98576.94;5121608;28;19931;-74
2023/01/06 01:30:15;;;;;;;;;;;;;;;8.42;100.00;98581.44;5123089;28;19935;-74
2023/01/06 01:32:42;;;;;;;;;;;;;;;8.39;100.00;98581.91;5123095;28;19930;-74
2023/01/06 01:35:09;;;;;;;;;;;;;;;8.43;100.00;98580.41;5110416;28;19932;-75
2023/01/06 01:37:36;;;;;;;;;;;;;;;8.47;100.00;98582.38;5092033;28;19935;-74
2023/01/06 01:40:02;;;;;;;;;;;;;;;8.40;100.00;98580.88;5110128;28;19928;-74
2023/01/06 01:42:29;;;;;;;;;;;;;;;8.39;100.00;98582.72;5099382;28;19942;-74
2023/01/06 01:44:58;;;;;;;;;;;;;;;8.27;100.00;98573.91;5108484;28;19924;-76
2023/01/06 01:47:28;;;;;;;;;;;;;;;8.35;100.00;98564.81;5100055;28;19936;-75
2023/01/06 01:49:58;;;;;;;;;;;;;;;8.40;100.00;98572.88;5101682;28;19924;-75
2023/01/06 01:52:25;;;;;;;;;;;;;;;8.34;100.00;98576.47;5121587;28;19931;-75
2023/01/06 01:54:53;;;;;;;;;;;;;;;8.13;100.00;98564.53;5122578;27;19958;-75
2023/01/06 01:57:21;;;;;;;;;;;;;;;8.23;100.00;98550.66;5100159;28;19924;-75
2023/01/06 01:59:48;;;;;;;;;;;;;;;8.37;100.00;98560.03;5118731;28;19924;-74
2023/01/06 02:02:16;;;;;;;;;;;;;;;8.37;100.00;98557.38;5121926;28;19923;-75
2023/01/06 02:04:44;;;;;;;;;;;;;;;8.18;100.00;98558.50;5121468;28;19923;-75
2023/01/06 02:07:12;;;;;;;;;;;;;;;8.08;100.00;98545.78;5103601;28;19924;-75
2023/01/06 02:09:42;;;;;;;;;;;;;;;8.15;100.00;98547.31;5103382;28;19959;-75
2023/01/06 02:12:09;;;;;;;;;;;;;;;8.08;100.00;98546.59;5109408;28;19924;-74
2023/01/06 02:14:35;;;;;;;;;;;;;;;8.08;100.00;98545.78;5111335;28;19962;-75
2023/01/06 02:17:09;;;;;;;;;;;;;;;8.00;100.00;98548.81;5099463;28;20071;-75
2023/01/06 02:19:55;;;;;;;;;;;;;;;7.92;100.00;98546.50;5109155;28;19924;-75
2023/01/06 02:22:37;;;;;;;;;;;;;;;7.94;100.00;98547.88;5099371;28;20142;-75
2023/01/06 02:25:14;;;;;;;;;;;;;;;7.91;100.00;98545.69;5109212;28;20007;-74
2023/01/06 02:27:57;;;;;;;;;;;;;;;7.90;100.00;98536.06;5117364;28;19951;-75
2023/01/06 02:30:46;;;;;;;;;;;;;;;7.97;100.00;98534.13;5099416;28;19931;-73
2023/01/06 02:33:24;;;;;;;;;;;;;;;7.99;100.00;98533.88;5102488;28;19981;-75
2023/01/06 02:36:05;;;;;;;;;;;;;;;7.91;100.00;98539.56;5101940;28;19946;-74
2023/01/06 02:38:41;;;;;;;;;;;;;;;8.00;100.00;98535.50;5114578;28;20397;-74
2023/01/06 02:41:13;;;;;;;;;;;;;;;7.97;100.00;98534.13;5120706;28;19927;-75
2023/01/06 02:43:46;;;;;;;;;;;;;;;7.97;100.00;98528.00;5121104;28;19924;-75
2023/01/06 02:46:18;;;;;;;;;;;;;;;8.04;100.00;98523.38;5108807;28;20574;-74
2023/01/06 02:48:54;;;;;;;;;;;;;;;7.86;100.00;98524.28;5108798;28;19963;-74
2023/01/06 02:51:23;;;;;;;;;;;;;;;7.71;100.00;98523.09;5108734;28;19935;-74
2023/01/06 02:53:54;;;;;;;;;;;;;;;7.70;100.00;98518.84;5111515;27;19962;-75
2023/01/06 02:56:23;;;;;;;;;;;;;;;7.72;100.00;98522.06;5120424;28;19951;-73
2023/01/06 02:58:53;;;;;;;;;;;;;;;7.79;100.00;98514.81;5101334;28;19982;-74
2023/01/06 03:01:22;;;;;;;;;;;;;;;7.79;100.00;98512.13;5099544;28;19946;-75
2023/01/06 03:03:51;;;;;;;;;;;;;;;8.00;100.00;98516.88;5100347;28;19930;-75
2023/01/06 03:06:21;;;;;;;;;;;;;;;8.14;100.00;98523.56;5120355;28;19977;-73
2023/01/06 03:08:48;;;;;;;;;;;;;;;8.30;100.00;98517.59;5119784;28;20001;-74
2023/01/06 03:11:14;;;;;;;;;;;;;;;8.48;100.00;98516.66;5116440;28;19946;-74
2023/01/06 03:13:45;;;;;;;;;;;;;;;8.52;100.00;98517.78;5098560;28;19987;-75
2023/01/06 03:16:12;;;;;;;;;;;;;;;8.41;100.00;98523.94;5100065;28;19935;-75
2023/01/06 03:18:39;;;;;;;;;;;;;;;8.25;100.00;98522.78;5116772;28;19935;-74
2023/01/06 03:21:09;;;;;;;;;;;;;;;8.44;100.00;98513.66;5120453;28;19953;-74
2023/01/06 03:23:37;;;;;;;;;;;;;;;8.34;100.00;98520.59;5102017;28;19930;-75
2023/01/06 03:26:04;;;;;;;;;;;;;;;8.47;100.00;98512.38;5092661;28;19928;-75
2023/01/06 03:28:30;;;;;;;;;;;;;;;8.46;100.00;98530.19;5101290;28;19923;-75
2023/01/06 03:31:00;;;;;;;;;;;;;;;8.31;100.00;98513.91;5100081;28;19928;-75
2023/01/06 03:33:32;;;;;;;;;;;;;;;8.09;100.00;98515.50;5116234;28;20244;-74
2023/01/06 03:36:03;;;;;;;;;;;;;;;7.85;100.00;98512.03;5118292;28;20295;-74
2023/01/06 03:38:39;;;;;;;;;;;;;;;7.83;100.00;98513.31;5119490;28;19931;-75
2023/01/06 03:41:10;;;;;;;;;;;;;;;7.84;100.00;98512.25;5098387;28;20310;-75
2023/01/06 03:43:39;;;;;;;;;;;;;;;7.95;100.00;98503.47;5097712;28;19932;-75
2023/01/06 03:46:16;;;;;;;;;;;;;;;8.14;100.00;98507.63;5120007;28;19959;-75
2023/01/06 03:48:47;;;;;;;;;;;;;;;8.09;100.00;98513.66;5103318;28;19923;-75
2023/01/06 03:51:20;;;;;;;;;;;;;;;7.99;100.00;98510.75;5107958;28;19924;-75
2023/01/06 03:53:50;;;;;;;;;;;;;;;8.09;100.00;98508.31;5110489;27;20011;-75
2023/01/06 03:56:20;;;;;;;;;;;;;;;8.15;100.00;98503.91;5119554;28;19919;-75
2023/01/06 03:58:50;;;;;;;;;;;;;;;8.28;100.00;98495.72;5118961;28;19923;-75
2023/01/06 04:01:17;;;;;;;;;;;;;;;8.09;100.00;98494.22;5115519;28;19928;-75
2023/01/06 04:03:44;;;;;;;;;;;;;;;7.76;100.00;98488.66;5115555;28;19940;-75
2023/01/06 04:06:11;;;;;;;;;;;;;;;7.85;100.00;98492.59;5119094;28;19925;-74
2023/01/06 04:08:37;;;;;;;;;;;;;;;8.12;100.00;98499.06;5119594;28;19943;-74
2023/01/06 04:11:05;;;;;;;;;;;;;;;8.23;100.00;98490.28;5097829;28;21315;-75
2023/01/06 04:13:30;;;;;;;;;;;;;;;8.26;100.00;98495.13;5097323;28;19988;-74
2023/01/06 04:15:56;;;;;;;;;;;;;;;7.99;100.00;98493.97;5117347;28;19932;-75
2023/01/06 04:18:23;;;;;;;;;;;;;;;7.74;100.00;98485.41;5118852;28;19927;-74
2023/01/06 04:20:49;;;;;;;;;;;;;;;7.83;100.00;98489.38;5099673;28;19959;-75
2023/01/06 04:23:16;;;;;;;;;;;;;;;7.78;100.00;98486.59;5097060;28;19924;-74
2023/01/06 04:25:42;;;;;;;;;;;;;;;7.57;100.00;98486.13;5117738;27;19924;-74
2023/01/06 04:28:10;;;;;;;;;;;;;;;7.44;100.00;98488.97;5118850;28;19983;-74
2023/01/06 04:30:36;;;;;;;;;;;;;;;7.41;100.00;98485.97;5118660;28;19924;-74
2023/01/06 04:33:03;;;;;;;;;;;;;;;7.41;100.00;98481.47;5116285;28;19959;-74
2023/01/06 04:35:29;;;;;;;;;;;;;;;7.56;100.00;98489.81;5116951;28;19931;-75
2023/01/06 04:37:55;;;;;;;;;;;;;;;7.53;100.00;98478.81;5116810;28;19986;-74
2023/01/06 04:40:22;;;;;;;;;;;;;;;7.78;100.00;98475.94;5118836;28;19920;-75
2023/01/06 04:43:06;;;;;;;;;;;;;;;7.96;100.00;98475.81;5100095;28;19967;-75
2023/01/06 04:45:34;;;;;;;;;;;;;;;8.08;100.00;98473.97;5115152;28;19957;-74
2023/01/06 04:48:01;;;;;;;;;;;;;;;8.15;100.00;98472.00;5117638;28;19995;-74
2023/01/06 04:50:27;;;;;;;;;;;;;;;7.89;100.00;98470.63;5118382;28;20018;-74
2023/01/06 04:52:54;;;;;;;;;;;;;;;7.99;100.00;98472.69;5116863;28;19924;-75
2023/01/06 04:55:20;;;;;;;;;;;;;;;8.05;100.00;98469.91;5098364;28;19966;-74
2023/01/06 04:57:47;;;;;;;;;;;;;;;8.14;100.00;98473.03;5114981;28;19947;-75
2023/01/06 05:00:13;;;;;;;;;;;;;;;7.87;100.00;98471.91;5117999;28;19928;-74
2023/01/06 05:02:41;;;;;;;;;;;;;;;7.82;100.00;98469.13;5099870;28;19983;-75
2023/01/06 05:05:08;;;;;;;;;;;;;;;7.72;100.00;98466.25;5114602;28;19963;-75
2023/01/06 05:07:34;;;;;;;;;;;;;;;7.62;100.00;98472.13;5114665;28;19931;-75
2023/01/06 05:10:00;;;;;;;;;;;;;;;7.52;100.00;98471.91;5116921;28;19931;-74
2023/01/06 05:12:27;;;;;;;;;;;;;;;7.53;100.00;98474.31;5099997;28;19927;-74
2023/01/06 05:14:53;;;;;;;;;;;;;;;7.50;100.00;98480.09;5116741;28;20000;-74
2023/01/06 05:17:20;;;;;;;;;;;;;;;7.52;100.00;98472.69;5114675;28;20011;-73
2023/01/06 05:19:48;;;;;;;;;;;;;;;7.72;100.00;98482.19;5096766;28;19984;-74
2023/01/06 05:22:14;;;;;;;;;;;;;;;7.45;100.00;98477.31;5102056;28;19920;-74
2023/01/06 05:24:40;;;;;;;;;;;;;;;7.57;100.00;98480.81;5109933;28;19928;-74
2023/01/06 05:27:07;;;;;;;;;;;;;;;7.67;100.00;98484.75;5114500;28;20619;-74
2023/01/06 05:29:33;;;;;;;;;;;;;;;7.70;100.00;98479.78;5114222;28;19975;-74
2023/01/06 05:32:00;;;;;;;;;;;;;;;7.50;100.00;98473.97;5098456;28;20480;-74
2023/01/06 05:34:26;;;;;;;;;;;;;;;7.44;100.00;98478.34;5117658;28;20518;-74
2023/01/06 05:36:55;;;;;;;;;;;;;;;7.50;100.00;98490.72;5117019;28;20182;-74
2023/01/06 05:39:22;;;;;;;;;;;;;;;7.44;100.00;98491.63;5114088;28;19920;-74
2023/01/06 05:41:48;;;;;;;;;;;;;;;7.53;100.00;98489.44;5114957;28;19955;-74
2023/01/06 05:44:14;;;;;;;;;;;;;;;7.74;100.00;98491.53;5117920;28;19966;-74
2023/01/06 05:46:41;;;;;;;;;;;;;;;7.66;100.00;98496.41;5118161;28;19980;-75
2023/01/06 05:49:08;;;;;;;;;;;;;;;7.89;100.00;98497.22;5096140;28;19956;-75
2023/01/06 05:51:35;;;;;;;;;;;;;;;7.83;100.00;98495.47;5114441;28;19944;-75
2023/01/06 05:54:06;;;;;;;;;;;;;;;7.65;100.00;98494.78;5130019;28;20630;-75
2023/01/06 05:56:33;;;;;;;;;;;;;;;7.55;100.00;98488.19;5094585;28;19955;-74
2023/01/06 05:58:59;;;;;;;;;;;;;;;7.85;100.00;98493.41;5097901;28;19920;-74
2023/01/06 06:01:27;;;;;;;;;;;;;;;7.86;100.00;98488.91;5114893;28;19975;-75
2023/01/06 06:03:53;;;;;;;;;;;;;;;7.58;100.00;98487.72;5116665;28;19970;-75
2023/01/06 06:06:20;;;;;;;;;;;;;;;7.54;100.00;98486.56;5100109;28;19955;-74
2023/01/06 06:08:47;;;;;;;;;;;;;;;7.68;100.00;98489.00;5122104;28;19920;-74
2023/01/06 06:11:15;;;;;;;;;;;;;;;7.69;100.00;98491.44;5100917;28;20008;-73
2023/01/06 06:13:45;;;;;;;;;;;;;;;7.46;100.00;98484.25;5100070;28;19920;-75
2023/01/06 06:16:12;;;;;;;;;;;;;;;7.44;100.00;98485.50;5109372;28;19928;-74
2023/01/06 06:18:41;;;;;;;;;;;;;;;7.52;100.00;98482.53;5090897;28;19924;-74
2023/01/06 06:21:08;;;;;;;;;;;;;;;7.49;100.00;98491.75;5108736;28;19987;-75
2023/01/06 06:23:35;;;;;;;;;;;;;;;7.45;100.00;98487.94;5109223;28;19924;-74
2023/01/06 06:26:01;;;;;;;;;;;;;;;7.45;100.00;98479.97;5108978;28;20652;-75
2023/01/06 06:28:31;;;;;;;;;;;;;;;7.39;100.00;98478.25;5108856;28;19928;-74
2023/01/06 06:31:03;;;;;;;;;;;;;;;7.48;100.00;98471.56;5119153;28;19945;-74
2023/01/06 06:33:29;;;;;;;;;;;;;;;7.71;100.00;98469.94;5103468;28;19920;-75
2023/01/06 06:35:56;;;;;;;;;;;;;;;7.45;100.00;98472.00;5119532;28;19923;-75
2023/01/06 06:38:22;;;;;;;;;;;;;;;7.38;100.00;98476.59;5117577;28;19927;-75
2023/01/06 06:40:49;;;;;;;;;;;;;;;7.43;100.00;98474.06;5117998;28;19991;-74
2023/01/06 06:43:16;;;;;;;;;;;;;;;7.43;100.00;98478.56;5120919;28;19934;-74
2023/01/06 06:45:45;;;;;;;;;;;;;;;7.49;100.00;98477.66;5120543;28;19927;-74
2023/01/06 06:48:12;;;;;;;;;;;;;;;7.30;100.00;98468.97;5108758;28;19992;-75
2023/01/06 06:50:38;;;;;;;;;;;;;;;7.33;100.00;98468.53;5108371;28;19931;-74
2023/01/06 06:53:05;;;;;;;;;;;;;;;7.53;100.00;98479.63;5108622;28;19947;-74
2023/01/06 06:55:32;;;;;;;;;;;;;;;7.53;100.00;98463.69;5120618;27;19920;-74
2023/01/06 06:57:58;;;;;;;;;;;;;;;7.34;100.00;98470.13;5118757;28;19970;-75
2023/01/06 07:00:25;;;;;;;;;;;;;;;7.32;100.00;98461.59;5120264;28;19938;-75
2023/01/06 07:02:52;;;;;;;;;;;;;;;7.44;100.00;98461.59;5100799;28;19920;-75
2023/01/06 07:05:19;;;;;;;;;;;;;;;7.46;100.00;98462.97;5098511;28;19924;-74
2023/01/06 07:07:45;;;;;;;;;;;;;;;7.28;100.00;98465.72;5116703;28;19928;-75
2023/01/06 07:10:13;;;;;;;;;;;;;;;7.29;100.00;98459.38;5119878;28;19950;-75
2023/01/06 07:12:39;;;;;;;;;;;;;;;7.40;100.00;98465.75;5101645;28;19947;-75
2023/01/06 07:15:06;;;;;;;;;;;;;;;7.44;100.00;98470.38;5098492;28;19959;-75
2023/01/06 07:17:33;;;;;;;;;;;;;;;7.65;100.00;98478.81;5097798;28;20651;-74
2023/01/06 07:20:00;;;;;;;;;;;;;;;7.30;100.00;98468.16;5099813;28;19928;-74
2023/01/06 07:22:27;;;;;;;;;;;;;;;7.37;100.00;98469.66;5101691;28;19946;-75
2023/01/06 07:24:53;;;;;;;;;;;;;;;7.38;100.00;98468.63;5110104;28;19920;-74
2023/01/06 07:27:19;;;;;;;;;;;;;;;7.39;100.00;98475.59;5098019;28;19920;-74
2023/01/06 07:29:46;;;;;;;;;;;;;;;7.51;100.00;98463.13;5116730;28;20037;-74
2023/01/06 07:32:12;;;;;;;;;;;;;;;7.53;100.00;98468.19;5101461;28;19970;-75
2023/01/06 07:34:40;;;;;;;;;;;;;;;7.69;100.00;98477.34;5101549;28;20470;-75
2023/01/06 07:37:08;;;;;;;;;;;;;;;7.46;100.00;98465.63;5116301;28;19920;-75
2023/01/06 07:39:34;;;;;;;;;;;;;;;7.49;100.00;98488.28;5097767;28;19924;-74
2023/01/06 07:42:00;;;;;;;;;;;;;;;7.61;100.00;98492.56;5100789;28;20222;-74
2023/01/06 07:44:27;;;;;;;;;;;;;;;7.47;100.00;98485.88;5122515;28;19920;-74
2023/01/06 07:46:53;;;;;;;;;;;;;;;7.46;100.00;98484.25;5101510;28;19924;-75
2023/01/06 07:49:19;;;;;;;;;;;;;;;7.40;100.00;98490.47;5115919;28;19955;-74
2023/01/06 07:51:46;;;;;;;;;;;;;;;7.35;100.00;98476.25;5097671;28;19920;-75
2023/01/06 07:54:13;;;;;;;;;;;;;;;7.42;100.00;98471.66;5121529;27;20594;-75
2023/01/06 07:56:40;;;;;;;;;;;;;;;7.40;100.00;98479.84;5101217;28;19931;-75
2023/01/06 07:59:06;;;;;;;;;;;;;;;7.52;100.00;98485.19;5116519;28;19987;-75
2023/01/06 08:01:33;;;;;;;;;;;;;;;7.57;100.00;98472.00;5115496;28;19928;-75
2023/01/06 08:03:59;;;;;;;;;;;;;;;7.50;100.00;98468.66;5117464;28;19959;-75
2023/01/06 08:06:25;;;;;;;;;;;;;;;7.63;100.00;98478.25;5100697;28;19965;-75
2023/01/06 08:08:52;;;;;;;;;;;;;;;7.71;100.00;98481.38;5118378;28;19955;-74
2023/01/06 08:11:19;;;;;;;;;;;;;;;7.83;100.00;98482.19;5098125;28;19966;-74
2023/01/06 08:13:46;;;;;;;;;;;;;;;7.86;100.00;98489.69;5116141;28;20011;-74
2023/01/06 08:16:12;;;;;;;;;;;;;;;7.93;100.00;98500.22;5119144;28;20000;-74
2023/01/06 08:18:39;;;;;;;;;;;;;;;8.02;100.00;98512.94;5119205;28;19939;-75
2023/01/06 08:21:07;;;;;;;;;;;;;;;8.09;100.00;98512.84;5115783;28;20023;-74
2023/01/06 08:23:34;;;;;;;;;;;;;;;8.15;100.00;98512.72;5097831;28;19935;-72
2023/01/06 08:26:04;;;;;;;;;;;;;;;8.18;100.00;98511.44;5109630;28;19924;-74
2023/01/06 08:28:32;;;;;;;;;;;;;;;8.13;100.00;98506.84;5103721;28;19928;-74
2023/01/06 08:30:59;;;;;;;;;;;;;;;8.18;100.00;98515.94;5101379;28;19930;-74
2023/01/06 08:33:25;;;;;;;;;;;;;;;8.19;100.00;98505.09;5119745;28;19934;-75
2023/01/06 08:35:52;;;;;;;;;;;;;;;8.32;100.00;98507.53;5100191;28;19920;-75
2023/01/06 08:38:18;;;;;;;;;;;;;;;8.34;100.00;98513.44;5119836;28;19924;-75
2023/01/06 08:40:45;;;;;;;;;;;;;;;8.15;100.00;98503.91;5102900;28;19951;-75
2023/01/06 08:43:11;;;;;;;;;;;;;;;8.10;100.00;98498.50;5098474;28;19926;-75
2023/01/06 08:45:40;;;;;;;;;;;;;;;8.08;100.00;98500.56;5115539;28;19931;-75
2023/01/06 08:48:06;;;;;;;;;;;;;;;8.18;100.00;98505.31;5118162;28;19978;-75
2023/01/06 08:50:32;;;;;;;;;;;;;;;8.17;100.00;98506.38;5100220;28;19924;-75
2023/01/06 08:52:59;;;;;;;;;;;;;;;9.70;100.00;98507.19;5116546;28;19949;-75
2023/01/06 08:55:25;;;;;;;;;;;;;;;11.09;100.00;98491.69;5098851;28;20523;-73
2023/01/06 08:57:51;;;;;;;;;;;;;;;11.60;100.00;98484.94;5115507;28;19920;-74
2023/01/06 09:00:18;;;;;;;;;;;;;;;11.96;100.00;98481.50;5118938;28;19931;-74
2023/01/06 09:02:46;;;;;;;;;;;;;;;12.19;100.00;98485.66;5100966;28;19931;-74
2023/01/06 09:05:12;;;;;;;;;;;;;;;12.36;100.00;98484.41;5096762;28;19950;-75
2023/01/06 09:07:39;;;;;;;;;;;;;;;12.58;100.00;98492.28;5115343;28;19963;-74
2023/01/06 09:10:06;;;;;;;;;;;;;;;12.69;100.00;98485.88;5118253;28;19993;-75
2023/01/06 09:12:33;;;;;;;;;;;;;;;12.18;100.00;98486.72;5100859;28;19924;-74
2023/01/06 09:14:59;;;;;;;;;;;;;;;12.22;100.00;98479.78;5099682;28;19931;-74
2023/01/06 09:17:25;;;;;;;;;;;;;;;12.68;100.00;98486.16;5116951;28;19939;-73
2023/01/06 09:19:53;;;;;;;;;;;;;;;12.92;100.00;98482.78;5116180;28;19920;-74
2023/01/06 09:22:20;;;;;;;;;;;;;;;12.98;100.00;98481.72;5100364;28;19923;-74
2023/01/06 09:24:46;;;;;;;;;;;;;;;12.13;100.00;98486.69;5091748;28;19924;-75
2023/01/06 09:27:13;;;;;;;;;;;;;;;11.24;100.00;98483.81;5092700;28;19923;-75
2023/01/06 09:29:39;;;;;;;;;;;;;;;10.72;100.00;98488.88;5134181;27;19999;-75
2023/01/06 09:32:06;;;;;;;;;;;;;;;10.54;100.00;98491.88;5115301;28;20644;-75
2023/01/06 09:34:32;;;;;;;;;;;;;;;10.32;100.00;98491.84;5096479;28;19924;-73
2023/01/06 09:37:01;;;;;;;;;;;;;;;10.07;100.00;98481.59;5116954;28;20678;-76
2023/01/06 09:39:27;;;;;;;;;;;;;;;9.70;100.00;98483.19;5100026;28;19923;-74
2023/01/06 09:42:09;;;;;;;;;;;;;;;9.50;100.00;98483.66;5099548;28;19920;-74
2023/01/06 09:44:42;;;;;;;;;;;;;;;9.32;100.00;98494.53;5100284;28;19974;-75
2023/01/06 09:47:11;;;;;;;;;;;;;;;9.25;100.00;98477.09;5122008;28;19920;-75
2023/01/06 09:49:40;;;;;;;;;;;;;;;9.23;100.00;98477.31;5103564;28;20015;-74
2023/01/06 09:52:13;;;;;;;;;;;;;;;9.33;100.00;98468.69;5118753;28;19977;-74
2023/01/06 09:54:43;;;;;;;;;;;;;;;9.21;100.00;98471.44;5109226;28;19961;-74
2023/01/06 09:57:13;;;;;;;;;;;;;;;9.09;100.00;98466.19;5109908;28;19940;-73
2023/01/06 09:59:45;;;;;;;;;;;;;;;8.98;100.00;98476.88;5109731;28;19920;-75
2023/01/06 10:02:14;;;;;;;;;;;;;;;8.94;100.00;98478.41;5119759;28;19967;-74
2023/01/06 10:04:41;;;;;;;;;;;;;;;8.96;100.00;98478.97;5100882;28;20394;-75
2023/01/06 10:07:13;;;;;;;;;;;;;;;8.93;100.00;98479.44;5121882;28;19937;-74
2023/01/06 10:09:45;;;;;;;;;;;;;;;9.02;100.00;98468.19;5103508;28;19919;-74
2023/01/06 10:12:18;;;;;;;;;;;;;;;9.03;100.00;98474.31;5099031;28;19920;-75
2023/01/06 10:14:49;;;;;;;;;;;;;;;9.10;100.00;98467.78;5117235;28;19924;-74
2023/01/06 10:17:24;;;;;;;;;;;;;;;9.02;100.00;98467.38;5108757;28;19991;-74
2023/01/06 10:19:58;;;;;;;;;;;;;;;8.96;100.00;98468.31;5108840;28;19955;-74
2023/01/06 10:22:29;;;;;;;;;;;;;;;8.91;100.00;98454.91;5108873;28;19993;-75
2023/01/06 10:25:01;;;;;;;;;;;;;;;8.96;100.00;98457.66;5120085;27;19924;-75
2023/01/06 10:27:33;;;;;;;;;;;;;;;9.10;100.00;98456.31;5099887;28;20384;-74
2023/01/06 10:30:01;;;;;;;;;;;;;;;9.09;100.00;98455.53;5120588;28;19923;-74
2023/01/06 10:32:29;;;;;;;;;;;;;;;9.07;100.00;98462.13;5104349;28;19932;-74
2023/01/06 10:34:56;;;;;;;;;;;;;;;9.12;100.00;98457.72;5120361;28;19924;-74
2023/01/06 10:37:25;;;;;;;;;;;;;;;9.28;100.00;98450.78;5119018;28;19920;-75
2023/01/06 10:39:55;;;;;;;;;;;;;;;9.38;100.00;98448.25;5101713;28;19959;-75
2023/01/06 10:45:11;;;;;;;;;;;;;;;9.24;100.00;98438.97;5133749;27;19924;-75
2023/01/06 10:47:39;;;;;;;;;;;;;;;9.33;100.00;98434.88;5119017;28;19920;-75
2023/01/06 10:50:06;;;;;;;;;;;;;;;9.31;100.00;98438.81;5104400;28;19938;-73
2023/01/06 10:52:32;;;;;;;;;;;;;;;9.57;100.00;98435.50;5102584;28;19923;-74
2023/01/06 10:55:03;;;;;;;;;;;;;;;9.52;100.00;98440.75;5120298;27;19924;-74
2023/01/06 10:57:32;;;;;;;;;;;;;;;9.65;100.00;98440.44;5117056;28;20042;-74
2023/01/06 11:00:13;;;;;;;;;;;;;;;9.38;100.00;98434.13;5119141;28;19995;-75
2023/01/06 11:02:42;;;;;;;;;;;;;;;9.53;100.00;98427.16;5102417;28;19923;-74
2023/01/06 11:05:12;;;;;;;;;;;;;;;9.71;100.00;98423.47;5099062;28;19924;-75
2023/01/06 11:07:45;;;;;;;;;;;;;;;9.45;100.00;98424.94;5117096;28;19924;-74
2023/01/06 11:10:23;;;;;;;;;;;;;;;9.41;100.00;98429.13;5099022;28;19932;-74
2023/01/06 11:12:49;;;;;;;;;;;;;;;9.72;100.00;98428.53;5099954;28;19947;-75
2023/01/06 11:15:20;;;;;;;;;;;;;;;9.62;100.00;98419.59;5102356;28;19924;-75
2023/01/06 11:17:47;;;;;;;;;;;;;;;9.56;100.00;98418.69;5119931;28;19969;-72
2023/01/06 11:20:27;;;;;;;;;;;;;;;9.51;100.00;98413.28;5098874;28;20159;-73
2023/01/06 11:22:54;;;;;;;;;;;;;;;9.53;100.00;98405.84;5117911;28;19970;-75
2023/01/06 11:25:30;;;;;;;;;;;;;;;9.84;100.00;98401.75;5106481;28;19965;-74
2023/01/06 11:28:14;;;;;;;;;;;;;;;9.85;100.00;98395.38;5117962;28;19938;-75
2023/01/06 11:30:44;;;;;;;;;;;;;;;9.73;100.00;98392.00;5120396;28;19950;-74
2023/01/06 11:33:15;;;;;;;;;;;;;;;9.77;100.00;98385.94;5108955;28;19980;-74
2023/01/06 11:35:41;;;;;;;;;;;;;;;9.70;100.00;98390.66;5101043;28;20305;-74
2023/01/06 11:38:11;;;;;;;;;;;;;;;9.94;100.00;98387.75;5090213;28;19942;-73
2023/01/06 11:40:39;;;;;;;;;;;;;;;9.94;100.00;98383.22;5107944;28;19931;-74
2023/01/06 11:43:08;;;;;;;;;;;;;;;9.70;100.00;98384.50;5107581;28;19928;-74
2023/01/06 11:45:36;;;;;;;;;;;;;;;9.82;100.00;98387.06;5107569;28;19924;-74
2023/01/06 11:48:03;;;;;;;;;;;;;;;9.73;100.00;98389.34;5100298;28;19924;-73
2023/01/06 11:50:29;;;;;;;;;;;;;;;9.70;100.00;98381.81;5101301;28;20706;-75
2023/01/06 11:53:00;;;;;;;;;;;;;;;9.71;100.00;98378.94;5099852;28;19958;-75
2023/01/06 11:55:27;;;;;;;;;;;;;;;9.74;100.00;98375.78;5099650;28;20455;-74
2023/01/06 11:57:59;;;;;;;;;;;;;;;9.99;100.00;98375.31;5098890;28;19946;-75
2023/01/06 12:00:42;;;;;;;;;;;;;;;9.83;100.00;98381.50;5101162;28;19987;-74
2023/01/06 12:03:16;;;;;;;;;;;;;;;9.84;100.00;98382.28;5097686;28;19931;-74
2023/01/06 12:05:45;;;;;;;;;;;;;;;9.87;100.00;98387.94;5115630;28;19935;-75
2023/01/06 12:08:15;;;;;;;;;;;;;;;9.87;100.00;98384.47;5115558;28;19924;-76
2023/01/06 12:10:43;;;;;;;;;;;;;;;9.75;100.00;98388.03;5115561;28;19920;-75
2023/01/06 12:13:12;;;;;;;;;;;;;;;9.73;100.00;98378.66;5119004;28;19923;-76
2023/01/06 12:15:40;;;;;;;;;;;;;;;9.74;100.00;98381.09;5118917;28;20522;-75
2023/01/06 12:18:11;;;;;;;;;;;;;;;9.73;100.00;98378.66;5098043;28;19924;-74
2023/01/06 12:20:40;;;;;;;;;;;;;;;9.75;100.00;98377.38;5117521;28;19920;-76
2023/01/06 12:23:11;;;;;;;;;;;;;;;9.81;100.00;98378.25;5100752;28;19923;-76
2023/01/06 12:25:39;;;;;;;;;;;;;;;9.81;100.00;98383.56;5103054;28;19930;-75
2023/01/06 12:28:06;;;;;;;;;;;;;;;10.17;100.00;98384.88;5117465;28;20003;-75
2023/01/06 12:30:36;;;;;;;;;;;;;;;10.03;100.00;98379.06;5118278;28;19962;-75
2023/01/06 12:33:05;;;;;;;;;;;;;;;9.83;100.00;98383.34;5115980;28;20364;-76
2023/01/06 12:35:36;;;;;;;;;;;;;;;9.88;100.00;98383.41;5114144;28;21421;-75
2023/01/06 12:38:07;;;;;;;;;;;;;;;9.89;100.00;98382.34;5118010;28;19920;-74
2023/01/06 12:40:36;;;;;;;;;;;;;;;10.00;100.00;98392.09;5100950;28;19966;-75
2023/01/06 12:43:11;;;;;;;;;;;;;;;10.05;100.00;98384.16;5098108;28;20357;-75
2023/01/06 12:45:42;;;;;;;;;;;;;;;9.99;100.00;98387.84;5097241;28;19959;-76
2023/01/06 12:48:15;;;;;;;;;;;;;;;9.91;100.00;98385.56;5118079;28;19935;-74
2023/01/06 12:50:43;;;;;;;;;;;;;;;9.88;100.00;98380.72;5099705;28;19924;-72
2023/01/06 12:53:13;;;;;;;;;;;;;;;9.91;100.00;98385.56;5114468;28;19984;-74
2023/01/06 12:55:42;;;;;;;;;;;;;;;9.91;100.00;98391.72;5098993;28;19923;-77
2023/01/06 12:58:14;;;;;;;;;;;;;;;10.00;100.00;98395.56;5099778;28;19924;-75